sensor_id;sensor_type;location;lat;lon;timestamp;pressure;altitude;pressure_sealevel;temperature;humidity
77092;BME280;66032;48.252;11.638;2023-04-06T00:01:44;96233.31;;;-0.91;75.27
77092;BME280;66032;48.252;11.638;2023-04-06T00:04:11;96226.69;;;-0.96;75.70
77092;BME280;66032;48.252;11.638;2023-04-06T00:06:38;96224.34;;;-1.01;75.96
77092;BME280;66032;48.252;11.638;2023-04-06T00:09:06;96221.56;;;-0.98;75.78
77092;BME280;66032;48.252;11.638;2023-04-06T00:11:34;96230.28;;;-0.99;75.95
77092;BME280;66032;48.252;11.638;2023-04-06T00:14:01;96222.72;;;-1.03;76.14
77092;BME280;66032;48.252;11.638;2023-04-06T00:16:28;96221.19;;;-1.07;76.44
77092;BME280;66032;48.252;11.638;2023-04-06T00:18:56;96224.72;;;-1.08;76.90
77092;BME280;66032;48.252;11.638;2023-04-06T00:21:23;96225.81;;;-1.12;77.09
77092;BME280;66032;48.252;11.638;2023-04-06T00:23:50;96220.94;;;-1.19;77.48
77092;BME280;66032;48.252;11.638;2023-04-06T00:26:18;96225.44;;;-1.22;77.08
77092;BME280;66032;48.252;11.638;2023-04-06T00:28:47;96232.66;;;-1.27;76.74
77092;BME280;66032;48.252;11.638;2023-04-06T00:31:14;96232.94;;;-1.33;76.83
77092;BME280;66032;48.252;11.638;2023-04-06T00:33:41;96235.88;;;-1.39;77.01
77092;BME280;66032;48.252;11.638;2023-04-06T00:36:08;96230.91;;;-1.44;76.77
77092;BME280;66032;48.252;11.638;2023-04-06T00:38:36;96231.91;;;-1.46;77.81
77092;BME280;66032;48.252;11.638;2023-04-06T00:41:04;96227.69;;;-1.49;76.88
77092;BME280;66032;48.252;11.638;2023-04-06T00:43:32;96231.22;;;-1.50;77.11
77092;BME280;66032;48.252;11.638;2023-04-06T00:45:59;96233.22;;;-1.55;77.11
77092;BME280;66032;48.252;11.638;2023-04-06T00:48:26;96233.34;;;-1.58;76.58
77092;BME280;66032;48.252;11.638;2023-04-06T00:50:54;96225.56;;;-1.58;77.77
77092;BME280;66032;48.252;11.638;2023-04-06T00:53:21;96235.13;;;-1.59;77.37
77092;BME280;66032;48.252;11.638;2023-04-06T00:55:50;96226.34;;;-1.56;77.58
77092;BME280;66032;48.252;11.638;2023-04-06T00:58:17;96224.66;;;-1.57;78.23
77092;BME280;66032;48.252;11.638;2023-04-06T01:00:51;96225.56;;;-1.58;77.60
77092;BME280;66032;48.252;11.638;2023-04-06T01:03:21;96225.72;;;-1.61;77.44
77092;BME280;66032;48.252;11.638;2023-04-06T01:05:49;96234.38;;;-1.61;77.75
77092;BME280;66032;48.252;11.638;2023-04-06T01:08:26;96231.00;;;-1.63;77.51
77092;BME280;66032;48.252;11.638;2023-04-06T01:11:07;96235.50;;;-1.66;77.87
77092;BME280;66032;48.252;11.638;2023-04-06T01:13:36;96232.00;;;-1.65;78.28
77092;BME280;66032;48.252;11.638;2023-04-06T01:16:07;96232.91;;;-1.66;78.17
77092;BME280;66032;48.252;11.638;2023-04-06T01:18:48;96233.81;;;-1.67;78.45
77092;BME280;66032;48.252;11.638;2023-04-06T01:21:20;96229.56;;;-1.68;78.73
77092;BME280;66032;48.252;11.638;2023-04-06T01:24:17;96230.53;;;-1.71;78.86
77092;BME280;66032;48.252;11.638;2023-04-06T01:27:05;96225.41;;;-1.72;78.61
77092;BME280;66032;48.252;11.638;2023-04-06T01:29:52;96219.63;;;-1.77;78.20
77092;BME280;66032;48.252;11.638;2023-04-06T01:32:37;96217.94;;;-1.78;78.31
77092;BME280;66032;48.252;11.638;2023-04-06T01:35:06;96224.06;;;-1.79;79.25
77092;BME280;66032;48.252;11.638;2023-04-06T01:37:39;96222.38;;;-1.80;79.02
77092;BME280;66032;48.252;11.638;2023-04-06T01:40:11;96220.69;;;-1.81;79.38
77092;BME280;66032;48.252;11.638;2023-04-06T01:42:44;96213.81;;;-1.82;79.57
77092;BME280;66032;48.252;11.638;2023-04-06T01:45:16;96214.81;;;-1.85;79.36
77092;BME280;66032;48.252;11.638;2023-04-06T01:47:45;96213.88;;;-1.84;79.85
77092;BME280;66032;48.252;11.638;2023-04-06T01:50:13;96219.00;;;-1.82;80.28
77092;BME280;66032;48.252;11.638;2023-04-06T01:52:44;96214.81;;;-1.85;80.02
77092;BME280;66032;48.252;11.638;2023-04-06T01:55:12;96208.78;;;-1.85;80.04
77092;BME280;66032;48.252;11.638;2023-04-06T01:58:04;96213.97;;;-1.85;80.28
77092;BME280;66032;48.252;11.638;2023-04-06T02:00:36;96213.19;;;-1.87;79.99
77092;BME280;66032;48.252;11.638;2023-04-06T02:03:03;96210.75;;;-1.91;79.71
77092;BME280;66032;48.252;11.638;2023-04-06T02:05:32;96206.56;;;-1.93;79.02
77092;BME280;66032;48.252;11.638;2023-04-06T02:08:17;96206.63;;;-1.95;80.51
77092;BME280;66032;48.252;11.638;2023-04-06T02:10:45;96206.63;;;-1.95;80.25
77092;BME280;66032;48.252;11.638;2023-04-06T02:13:23;96201.50;;;-1.96;80.13
77092;BME280;66032;48.252;11.638;2023-04-06T02:15:52;96205.00;;;-1.97;80.39
77092;BME280;66032;48.252;11.638;2023-04-06T02:18:20;96205.94;;;-1.98;79.82
77092;BME280;66032;48.252;11.638;2023-04-06T02:20:47;96208.53;;;-1.98;80.97
77092;BME280;66032;48.252;11.638;2023-04-06T02:23:15;96210.44;;;-2.02;80.29
77092;BME280;66032;48.252;11.638;2023-04-06T02:25:42;96201.03;;;-2.04;80.09
77092;BME280;66032;48.252;11.638;2023-04-06T02:28:09;96202.88;;;-2.06;79.51
77092;BME280;66032;48.252;11.638;2023-04-06T02:30:37;96205.63;;;-2.09;79.55
77092;BME280;66032;48.252;11.638;2023-04-06T02:33:05;96202.28;;;-2.11;80.16
77092;BME280;66032;48.252;11.638;2023-04-06T02:35:40;96200.66;;;-2.14;80.04
77092;BME280;66032;48.252;11.638;2023-04-06T02:38:07;96211.16;;;-2.17;80.34
77092;BME280;66032;48.252;11.638;2023-04-06T02:40:35;96207.72;;;-2.17;80.44
77092;BME280;66032;48.252;11.638;2023-04-06T02:43:14;96206.94;;;-2.18;80.76
77092;BME280;66032;48.252;11.638;2023-04-06T02:45:44;96207.06;;;-2.21;80.60
77092;BME280;66032;48.252;11.638;2023-04-06T02:48:13;96205.25;;;-2.19;81.36
77092;BME280;66032;48.252;11.638;2023-04-06T02:50:41;96200.03;;;-2.19;81.79
77092;BME280;66032;48.252;11.638;2023-04-06T02:53:08;96197.34;;;-2.17;82.14
77092;BME280;66032;48.252;11.638;2023-04-06T02:55:37;96197.34;;;-2.17;82.63
77092;BME280;66032;48.252;11.638;2023-04-06T02:58:04;96202.41;;;-2.14;81.99
77092;BME280;66032;48.252;11.638;2023-04-06T03:00:42;96191.09;;;-2.13;82.11
77092;BME280;66032;48.252;11.638;2023-04-06T03:03:09;96194.47;;;-2.11;81.64
77092;BME280;66032;48.252;11.638;2023-04-06T03:05:37;96193.41;;;-2.07;81.12
77092;BME280;66032;48.252;11.638;2023-04-06T03:08:05;96195.84;;;-2.04;80.77
77092;BME280;66032;48.252;11.638;2023-04-06T03:10:41;96203.56;;;-2.03;80.40
77092;BME280;66032;48.252;11.638;2023-04-06T03:13:09;96203.56;;;-2.03;80.39
77092;BME280;66032;48.252;11.638;2023-04-06T03:15:56;96199.91;;;-1.99;79.70
77092;BME280;66032;48.252;11.638;2023-04-06T03:18:25;96198.91;;;-1.96;80.73
77092;BME280;66032;48.252;11.638;2023-04-06T03:20:55;96200.34;;;-1.91;81.04
77092;BME280;66032;48.252;11.638;2023-04-06T03:23:28;96198.22;;;-1.82;81.20
77092;BME280;66032;48.252;11.638;2023-04-06T03:25:59;96198.78;;;-1.76;80.91
77092;BME280;66032;48.252;11.638;2023-04-06T03:28:28;96203.03;;;-1.75;81.09
77092;BME280;66032;48.252;11.638;2023-04-06T03:30:59;96203.28;;;-1.79;80.93
77092;BME280;66032;48.252;11.638;2023-04-06T03:33:47;96201.44;;;-1.77;81.46
77092;BME280;66032;48.252;11.638;2023-04-06T03:36:21;96203.88;;;-1.74;81.24
77092;BME280;66032;48.252;11.638;2023-04-06T03:38:48;96203.28;;;-1.79;80.69
77092;BME280;66032;48.252;11.638;2023-04-06T03:41:16;96205.03;;;-1.80;81.73
77092;BME280;66032;48.252;11.638;2023-04-06T03:43:51;96206.84;;;-1.82;81.52
77092;BME280;66032;48.252;11.638;2023-04-06T03:46:18;96208.69;;;-1.84;81.64
77092;BME280;66032;48.252;11.638;2023-04-06T03:48:49;96208.91;;;-1.88;81.83
77092;BME280;66032;48.252;11.638;2023-04-06T03:51:19;96209.75;;;-1.88;82.23
77092;BME280;66032;48.252;11.638;2023-04-06T03:53:47;96209.69;;;-1.86;81.90
77092;BME280;66032;48.252;11.638;2023-04-06T03:56:14;96212.13;;;-1.83;82.16
77092;BME280;66032;48.252;11.638;2023-04-06T03:58:42;96213.72;;;-1.81;81.96
77092;BME280;66032;48.252;11.638;2023-04-06T04:01:12;96212.69;;;-1.77;81.43
77092;BME280;66032;48.252;11.638;2023-04-06T04:03:39;96218.72;;;-1.76;81.20
77092;BME280;66032;48.252;11.638;2023-04-06T04:06:06;96222.16;;;-1.76;80.88
77092;BME280;66032;48.252;11.638;2023-04-06T04:08:34;96218.78;;;-1.78;80.92
77092;BME280;66032;48.252;11.638;2023-04-06T04:11:02;96217.41;;;-1.85;81.05
77092;BME280;66032;48.252;11.638;2023-04-06T04:13:30;96218.31;;;-1.86;80.90
77092;BME280;66032;48.252;11.638;2023-04-06T04:15:57;96221.91;;;-1.88;80.99
77092;BME280;66032;48.252;11.638;2023-04-06T04:18:25;96221.06;;;-1.89;80.73
77092;BME280;66032;48.252;11.638;2023-04-06T04:20:52;96225.41;;;-1.89;80.64
77092;BME280;66032;48.252;11.638;2023-04-06T04:23:21;96224.75;;;-1.93;80.47
77092;BME280;66032;48.252;11.638;2023-04-06T04:25:49;96234.34;;;-1.95;80.79
77092;BME280;66032;48.252;11.638;2023-04-06T04:28:16;96231.84;;;-1.97;81.33
77092;BME280;66032;48.252;11.638;2023-04-06T04:30:44;96237.50;;;-1.88;80.90
77092;BME280;66032;48.252;11.638;2023-04-06T04:33:13;96233.13;;;-1.88;80.79
77092;BME280;66032;48.252;11.638;2023-04-06T04:35:41;96234.44;;;-1.97;81.06
77092;BME280;66032;48.252;11.638;2023-04-06T04:38:13;96236.31;;;-2.00;81.22
77092;BME280;66032;48.252;11.638;2023-04-06T04:40:43;96241.38;;;-1.97;81.21
77092;BME280;66032;48.252;11.638;2023-04-06T04:43:11;96249.25;;;-1.99;81.75
77092;BME280;66032;48.252;11.638;2023-04-06T04:45:38;96244.03;;;-1.99;81.44
77092;BME280;66032;48.252;11.638;2023-04-06T04:48:18;96245.72;;;-1.98;81.00
77092;BME280;66032;48.252;11.638;2023-04-06T04:50:51;96238.72;;;-1.96;81.04
77092;BME280;66032;48.252;11.638;2023-04-06T04:53:23;96246.19;;;-1.89;80.46
77092;BME280;66032;48.252;11.638;2023-04-06T04:55:55;96240.63;;;-1.82;79.78
77092;BME280;66032;48.252;11.638;2023-04-06T04:58:24;96237.03;;;-1.79;79.52
77092;BME280;66032;48.252;11.638;2023-04-06T05:00:56;96241.78;;;-1.70;79.76
77092;BME280;66032;48.252;11.638;2023-04-06T05:03:25;96239.78;;;-1.65;79.21
77092;BME280;66032;48.252;11.638;2023-04-06T05:06:00;96231.06;;;-1.64;78.93
77092;BME280;66032;48.252;11.638;2023-04-06T05:08:31;96234.13;;;-1.56;78.73
77092;BME280;66032;48.252;11.638;2023-04-06T05:11:00;96239.91;;;-1.34;79.08
77092;BME280;66032;48.252;11.638;2023-04-06T05:13:32;96232.16;;;-0.85;77.08
77092;BME280;66032;48.252;11.638;2023-04-06T05:16:05;96226.63;;;-0.63;76.23
77092;BME280;66032;48.252;11.638;2023-04-06T05:18:33;96229.00;;;-0.59;75.90
77092;BME280;66032;48.252;11.638;2023-04-06T05:21:02;96237.81;;;-0.46;75.48
77092;BME280;66032;48.252;11.638;2023-04-06T05:23:52;96232.72;;;0.14;73.68
77092;BME280;66032;48.252;11.638;2023-04-06T05:26:21;96230.63;;;0.79;71.53
77092;BME280;66032;48.252;11.638;2023-04-06T05:28:52;96224.66;;;1.48;68.86
77092;BME280;66032;48.252;11.638;2023-04-06T05:31:19;96230.09;;;2.13;67.25
77092;BME280;66032;48.252;11.638;2023-04-06T05:33:49;96229.41;;;2.88;64.01
77092;BME280;66032;48.252;11.638;2023-04-06T05:36:28;96226.63;;;3.53;61.47
77092;BME280;66032;48.252;11.638;2023-04-06T05:38:55;96218.69;;;4.15;59.90
77092;BME280;66032;48.252;11.638;2023-04-06T05:41:37;96231.88;;;5.07;58.51
77092;BME280;66032;48.252;11.638;2023-04-06T05:44:07;96229.94;;;5.87;55.81
77092;BME280;66032;48.252;11.638;2023-04-06T05:46:35;96226.22;;;6.55;54.16
77092;BME280;66032;48.252;11.638;2023-04-06T05:49:03;96223.75;;;7.16;51.04
77092;BME280;66032;48.252;11.638;2023-04-06T05:51:34;96220.53;;;7.73;50.35
77092;BME280;66032;48.252;11.638;2023-04-06T05:54:02;96222.69;;;8.48;49.89
77092;BME280;66032;48.252;11.638;2023-04-06T05:56:30;96229.34;;;8.91;46.67
77092;BME280;66032;48.252;11.638;2023-04-06T05:59:00;96220.50;;;9.38;46.18
77092;BME280;66032;48.252;11.638;2023-04-06T06:01:31;96214.66;;;10.09;44.09
77092;BME280;66032;48.252;11.638;2023-04-06T06:04:00;96221.41;;;10.84;43.01
77092;BME280;66032;48.252;11.638;2023-04-06T06:06:31;96216.41;;;11.24;41.37
77092;BME280;66032;48.252;11.638;2023-04-06T06:09:15;96223.38;;;10.99;42.06
77092;BME280;66032;48.252;11.638;2023-04-06T06:12:03;96225.38;;;11.49;40.88
77092;BME280;66032;48.252;11.638;2023-04-06T06:14:30;96217.13;;;11.78;39.83
77092;BME280;66032;48.252;11.638;2023-04-06T06:16:58;96225.69;;;12.56;39.38
77092;BME280;66032;48.252;11.638;2023-04-06T06:19:29;96221.63;;;13.10;39.22
77092;BME280;66032;48.252;11.638;2023-04-06T06:22:00;96223.44;;;14.22;36.99
77092;BME280;66032;48.252;11.638;2023-04-06T06:24:38;96214.69;;;14.98;35.69
77092;BME280;66032;48.252;11.638;2023-04-06T06:27:06;96215.00;;;15.78;34.71
77092;BME280;66032;48.252;11.638;2023-04-06T06:29:37;96216.59;;;16.67;32.54
77092;BME280;66032;48.252;11.638;2023-04-06T06:32:04;96217.47;;;17.31;31.27
77092;BME280;66032;48.252;11.638;2023-04-06T06:34:33;96212.75;;;17.82;30.66
77092;BME280;66032;48.252;11.638;2023-04-06T06:37:06;96211.13;;;18.57;32.13
77092;BME280;66032;48.252;11.638;2023-04-06T06:39:36;96207.47;;;18.30;30.56
77092;BME280;66032;48.252;11.638;2023-04-06T06:42:04;96205.69;;;18.50;29.27
77092;BME280;66032;48.252;11.638;2023-04-06T06:44:51;96216.34;;;18.72;29.38
77092;BME280;66032;48.252;11.638;2023-04-06T06:47:18;96208.22;;;19.85;30.04
77092;BME280;66032;48.252;11.638;2023-04-06T06:49:48;96209.38;;;20.29;27.68
77092;BME280;66032;48.252;11.638;2023-04-06T06:52:16;96219.69;;;20.52;26.97
77092;BME280;66032;48.252;11.638;2023-04-06T06:54:45;96217.88;;;20.26;26.88
77092;BME280;66032;48.252;11.638;2023-04-06T06:57:12;96223.47;;;19.25;28.00
77092;BME280;66032;48.252;11.638;2023-04-06T06:59:40;96220.63;;;18.25;28.91
77092;BME280;66032;48.252;11.638;2023-04-06T07:02:07;96217.47;;;18.49;29.35
77092;BME280;66032;48.252;11.638;2023-04-06T07:04:35;96223.38;;;18.79;29.13
77092;BME280;66032;48.252;11.638;2023-04-06T07:07:02;96227.53;;;17.08;29.95
77092;BME280;66032;48.252;11.638;2023-04-06T07:09:30;96234.81;;;17.57;30.08
77092;BME280;66032;48.252;11.638;2023-04-06T07:11:58;96229.63;;;17.76;30.06
77092;BME280;66032;48.252;11.638;2023-04-06T07:14:26;96229.28;;;18.20;29.87
77092;BME280;66032;48.252;11.638;2023-04-06T07:16:54;96222.22;;;18.54;29.37
77092;BME280;66032;48.252;11.638;2023-04-06T07:19:21;96231.31;;;16.92;30.12
77092;BME280;66032;48.252;11.638;2023-04-06T07:21:49;96220.19;;;16.74;31.20
77092;BME280;66032;48.252;11.638;2023-04-06T07:24:16;96235.59;;;17.72;31.11
77092;BME280;66032;48.252;11.638;2023-04-06T07:26:44;96226.91;;;18.32;30.06
77092;BME280;66032;48.252;11.638;2023-04-06T07:29:11;96230.78;;;17.95;29.23
77092;BME280;66032;48.252;11.638;2023-04-06T07:31:40;96228.63;;;18.12;28.96
77092;BME280;66032;48.252;11.638;2023-04-06T07:34:07;96227.31;;;18.01;29.87
77092;BME280;66032;48.252;11.638;2023-04-06T07:36:36;96234.91;;;17.63;28.87
77092;BME280;66032;48.252;11.638;2023-04-06T07:39:04;96233.81;;;17.36;30.26
77092;BME280;66032;48.252;11.638;2023-04-06T07:41:31;96232.44;;;18.65;29.61
77092;BME280;66032;48.252;11.638;2023-04-06T07:43:59;96233.97;;;19.01;28.60
77092;BME280;66032;48.252;11.638;2023-04-06T07:46:27;96229.78;;;17.96;29.44
77092;BME280;66032;48.252;11.638;2023-04-06T07:48:57;96227.75;;;18.87;28.78
77092;BME280;66032;48.252;11.638;2023-04-06T07:51:28;96229.13;;;18.63;28.32
77092;BME280;66032;48.252;11.638;2023-04-06T07:53:55;96229.50;;;19.27;28.21
77092;BME280;66032;48.252;11.638;2023-04-06T07:56:22;96232.03;;;17.99;29.03
77092;BME280;66032;48.252;11.638;2023-04-06T07:58:50;96220.88;;;18.30;28.20
77092;BME280;66032;48.252;11.638;2023-04-06T08:01:20;96220.63;;;19.40;28.13
77092;BME280;66032;48.252;11.638;2023-04-06T08:03:47;96224.34;;;18.58;28.20
77092;BME280;66032;48.252;11.638;2023-04-06T08:06:15;96222.09;;;19.82;28.84
77092;BME280;66032;48.252;11.638;2023-04-06T08:08:42;96214.16;;;20.33;25.71
77092;BME280;66032;48.252;11.638;2023-04-06T08:11:10;96225.22;;;19.73;26.15
77092;BME280;66032;48.252;11.638;2023-04-06T08:13:38;96220.44;;;19.68;25.97
77092;BME280;66032;48.252;11.638;2023-04-06T08:16:05;96228.06;;;18.23;27.22
77092;BME280;66032;48.252;11.638;2023-04-06T08:18:33;96227.69;;;17.21;28.60
77092;BME280;66032;48.252;11.638;2023-04-06T08:21:00;96224.44;;;16.68;29.17
77092;BME280;66032;48.252;11.638;2023-04-06T08:23:28;96228.38;;;17.08;28.41
77092;BME280;66032;48.252;11.638;2023-04-06T08:25:55;96228.00;;;16.90;29.45
77092;BME280;66032;48.252;11.638;2023-04-06T08:28:23;96232.59;;;17.18;29.92
77092;BME280;66032;48.252;11.638;2023-04-06T08:30:50;96226.59;;;18.20;28.19
77092;BME280;66032;48.252;11.638;2023-04-06T08:33:17;96237.88;;;17.32;29.12
77092;BME280;66032;48.252;11.638;2023-04-06T08:35:45;96229.81;;;18.44;30.17
77092;BME280;66032;48.252;11.638;2023-04-06T08:38:12;96224.56;;;20.03;27.41
77092;BME280;66032;48.252;11.638;2023-04-06T08:40:39;96229.00;;;18.50;26.90
77092;BME280;66032;48.252;11.638;2023-04-06T08:43:09;96225.09;;;18.11;27.64
77092;BME280;66032;48.252;11.638;2023-04-06T08:45:41;96231.53;;;19.06;26.80
77092;BME280;66032;48.252;11.638;2023-04-06T08:48:09;96231.00;;;19.69;26.07
77092;BME280;66032;48.252;11.638;2023-04-06T08:50:39;96231.78;;;20.16;26.12
77092;BME280;66032;48.252;11.638;2023-04-06T08:53:07;96226.63;;;19.95;26.70
77092;BME280;66032;48.252;11.638;2023-04-06T08:55:35;96231.34;;;20.19;25.75
77092;BME280;66032;48.252;11.638;2023-04-06T08:58:03;96226.91;;;20.64;25.70
77092;BME280;66032;48.252;11.638;2023-04-06T09:00:38;96226.06;;;21.46;25.55
77092;BME280;66032;48.252;11.638;2023-04-06T09:03:06;96226.84;;;22.83;24.07
77092;BME280;66032;48.252;11.638;2023-04-06T09:05:34;96217.63;;;22.11;22.72
77092;BME280;66032;48.252;11.638;2023-04-06T09:08:02;96219.91;;;21.89;23.54
77092;BME280;66032;48.252;11.638;2023-04-06T09:10:29;96219.56;;;21.54;23.60
77092;BME280;66032;48.252;11.638;2023-04-06T09:13:05;96215.97;;;20.97;23.74
77092;BME280;66032;48.252;11.638;2023-04-06T09:15:32;96200.09;;;22.20;23.56
77092;BME280;66032;48.252;11.638;2023-04-06T09:18:00;96219.59;;;21.23;22.84
77092;BME280;66032;48.252;11.638;2023-04-06T09:20:30;96215.13;;;20.97;23.25
77092;BME280;66032;48.252;11.638;2023-04-06T09:22:57;96207.38;;;22.56;22.70
77092;BME280;66032;48.252;11.638;2023-04-06T09:25:27;96214.25;;;23.66;21.43
77092;BME280;66032;48.252;11.638;2023-04-06T09:28:03;96206.50;;;24.28;20.27
77092;BME280;66032;48.252;11.638;2023-04-06T09:30:30;96209.19;;;22.98;21.27
77092;BME280;66032;48.252;11.638;2023-04-06T09:32:58;96210.66;;;21.78;22.77
77092;BME280;66032;48.252;11.638;2023-04-06T09:35:26;96208.13;;;22.26;22.72
77092;BME280;66032;48.252;11.638;2023-04-06T09:37:54;96209.81;;;21.78;22.20
77092;BME280;66032;48.252;11.638;2023-04-06T09:40:22;96213.81;;;21.44;23.05
77092;BME280;66032;48.252;11.638;2023-04-06T09:42:50;96205.94;;;20.73;23.70
77092;BME280;66032;48.252;11.638;2023-04-06T09:45:19;96208.31;;;20.50;23.51
77092;BME280;66032;48.252;11.638;2023-04-06T09:47:47;96210.75;;;21.40;22.70
77092;BME280;66032;48.252;11.638;2023-04-06T09:50:17;96205.88;;;22.60;22.39
77092;BME280;66032;48.252;11.638;2023-04-06T09:52:50;96191.34;;;22.43;21.98
77092;BME280;66032;48.252;11.638;2023-04-06T09:55:23;96192.72;;;19.74;23.75
77092;BME280;66032;48.252;11.638;2023-04-06T09:57:58;96197.00;;;20.15;24.29
77092;BME280;66032;48.252;11.638;2023-04-06T10:00:34;96196.44;;;18.60;24.99
77092;BME280;66032;48.252;11.638;2023-04-06T10:05:57;96199.28;;;17.48;26.06
77092;BME280;66032;48.252;11.638;2023-04-06T10:08:27;96194.09;;;15.44;28.54
77092;BME280;66032;48.252;11.638;2023-04-06T10:10:59;96191.59;;;15.94;28.04
77092;BME280;66032;48.252;11.638;2023-04-06T10:13:27;96180.47;;;16.27;27.83
77092;BME280;66032;48.252;11.638;2023-04-06T10:15:55;96185.13;;;16.69;28.21
77092;BME280;66032;48.252;11.638;2023-04-06T10:18:23;96185.53;;;16.87;29.23
77092;BME280;66032;48.252;11.638;2023-04-06T10:20:56;96187.41;;;16.57;27.85
77092;BME280;66032;48.252;11.638;2023-04-06T10:23:47;96178.50;;;15.55;29.54
77092;BME280;66032;48.252;11.638;2023-04-06T10:26:17;96179.72;;;15.07;29.29
77092;BME280;66032;48.252;11.638;2023-04-06T10:28:48;96188.22;;;15.11;29.14
77092;BME280;66032;48.252;11.638;2023-04-06T10:31:27;96184.41;;;14.82;30.23
77092;BME280;66032;48.252;11.638;2023-04-06T10:34:00;96176.84;;;14.71;31.11
77092;BME280;66032;48.252;11.638;2023-04-06T10:36:32;96176.66;;;14.11;31.61
77092;BME280;66032;48.252;11.638;2023-04-06T10:39:05;96176.16;;;13.60;31.37
77092;BME280;66032;48.252;11.638;2023-04-06T10:41:40;96176.53;;;13.41;32.43
77092;BME280;66032;48.252;11.638;2023-04-06T10:44:16;96177.72;;;13.39;32.62
77092;BME280;66032;48.252;11.638;2023-04-06T10:46:52;96168.78;;;13.79;32.58
77092;BME280;66032;48.252;11.638;2023-04-06T10:49:20;96162.81;;;14.07;32.45
77092;BME280;66032;48.252;11.638;2023-04-06T10:51:53;96149.72;;;13.43;32.49
77092;BME280;66032;48.252;11.638;2023-04-06T10:54:22;96159.72;;;13.08;33.18
77092;BME280;66032;48.252;11.638;2023-04-06T10:56:50;96162.53;;;12.34;34.08
77092;BME280;66032;48.252;11.638;2023-04-06T10:59:21;96161.88;;;12.64;35.10
77092;BME280;66032;48.252;11.638;2023-04-06T11:01:49;96165.75;;;12.78;33.64
77092;BME280;66032;48.252;11.638;2023-04-06T11:04:17;96164.41;;;13.14;33.09
77092;BME280;66032;48.252;11.638;2023-04-06T11:06:49;96158.72;;;13.42;34.69
77092;BME280;66032;48.252;11.638;2023-04-06T11:09:27;96153.88;;;13.53;34.40
77092;BME280;66032;48.252;11.638;2023-04-06T11:11:55;96152.69;;;13.64;32.62
77092;BME280;66032;48.252;11.638;2023-04-06T11:14:23;96152.25;;;13.83;33.68
77092;BME280;66032;48.252;11.638;2023-04-06T11:16:51;96137.63;;;13.24;32.53
77092;BME280;66032;48.252;11.638;2023-04-06T11:19:19;96138.56;;;13.39;33.67
77092;BME280;66032;48.252;11.638;2023-04-06T11:21:47;96137.19;;;13.59;33.34
77092;BME280;66032;48.252;11.638;2023-04-06T11:24:15;96133.50;;;13.68;32.83
77092;BME280;66032;48.252;11.638;2023-04-06T11:26:46;96134.81;;;13.81;33.66
77092;BME280;66032;48.252;11.638;2023-04-06T11:29:18;96130.81;;;13.77;32.17
77092;BME280;66032;48.252;11.638;2023-04-06T11:32:00;96124.78;;;13.83;32.61
77092;BME280;66032;48.252;11.638;2023-04-06T11:34:29;96120.81;;;13.79;33.25
77092;BME280;66032;48.252;11.638;2023-04-06T11:36:59;96124.03;;;13.66;31.85
77092;BME280;66032;48.252;11.638;2023-04-06T11:39:28;96119.44;;;13.44;31.25
77092;BME280;66032;48.252;11.638;2023-04-06T11:42:02;96113.38;;;12.62;32.63
77092;BME280;66032;48.252;11.638;2023-04-06T11:44:43;96114.34;;;12.45;34.35
77092;BME280;66032;48.252;11.638;2023-04-06T11:47:13;96119.53;;;12.71;34.01
77092;BME280;66032;48.252;11.638;2023-04-06T11:49:42;96126.16;;;12.91;33.72
77092;BME280;66032;48.252;11.638;2023-04-06T11:52:18;96117.84;;;13.02;33.98
77092;BME280;66032;48.252;11.638;2023-04-06T11:54:47;96120.66;;;13.09;33.83
77092;BME280;66032;48.252;11.638;2023-04-06T11:57:18;96112.34;;;13.20;33.47
77092;BME280;66032;48.252;11.638;2023-04-06T11:59:46;96119.50;;;12.95;34.13
77092;BME280;66032;48.252;11.638;2023-04-06T12:02:13;96109.19;;;13.16;33.92
77092;BME280;66032;48.252;11.638;2023-04-06T12:04:40;96102.16;;;13.32;32.87
77092;BME280;66032;48.252;11.638;2023-04-06T12:07:07;96110.63;;;13.43;32.52
77092;BME280;66032;48.252;11.638;2023-04-06T12:09:35;96113.09;;;13.53;32.54
77092;BME280;66032;48.252;11.638;2023-04-06T12:12:03;96106.31;;;13.34;32.90
77092;BME280;66032;48.252;11.638;2023-04-06T12:14:30;96097.69;;;13.08;32.50
77092;BME280;66032;48.252;11.638;2023-04-06T12:16:58;96096.72;;;13.17;32.72
77092;BME280;66032;48.252;11.638;2023-04-06T12:19:25;96101.31;;;13.31;33.08
77092;BME280;66032;48.252;11.638;2023-04-06T12:21:53;96094.13;;;13.40;32.54
77092;BME280;66032;48.252;11.638;2023-04-06T12:24:24;96097.13;;;13.45;33.49
77092;BME280;66032;48.252;11.638;2023-04-06T12:26:52;96088.38;;;13.28;33.37
77092;BME280;66032;48.252;11.638;2023-04-06T12:29:35;96095.19;;;12.98;33.14
77092;BME280;66032;48.252;11.638;2023-04-06T12:32:02;96086.59;;;12.72;33.69
77092;BME280;66032;48.252;11.638;2023-04-06T12:34:29;96084.25;;;12.85;33.36
77092;BME280;66032;48.252;11.638;2023-04-06T12:36:57;96078.94;;;12.93;32.89
77092;BME280;66032;48.252;11.638;2023-04-06T12:39:24;96082.06;;;13.13;33.44
77092;BME280;66032;48.252;11.638;2023-04-06T12:41:52;96076.91;;;13.11;34.15
77092;BME280;66032;48.252;11.638;2023-04-06T12:44:20;96071.41;;;13.21;33.09
77092;BME280;66032;48.252;11.638;2023-04-06T12:46:48;96063.94;;;13.16;34.37
77092;BME280;66032;48.252;11.638;2023-04-06T12:49:17;96062.94;;;13.17;33.19
77092;BME280;66032;48.252;11.638;2023-04-06T12:51:46;96061.94;;;13.18;32.98
77092;BME280;66032;48.252;11.638;2023-04-06T12:54:13;96056.31;;;13.13;33.39
77092;BME280;66032;48.252;11.638;2023-04-06T12:56:40;96058.97;;;12.89;32.73
77092;BME280;66032;48.252;11.638;2023-04-06T12:59:08;96065.94;;;12.90;33.07
77092;BME280;66032;48.252;11.638;2023-04-06T13:01:35;96059.13;;;13.04;33.01
77092;BME280;66032;48.252;11.638;2023-04-06T13:04:03;96061.59;;;13.21;34.97
77092;BME280;66032;48.252;11.638;2023-04-06T13:06:30;96064.81;;;13.48;33.20
77092;BME280;66032;48.252;11.638;2023-04-06T13:08:57;96060.56;;;13.70;32.58